sensor_id;sensor_type;location;lat;lon;timestamp;P1;durP1;ratioP1;P2;durP2;ratioP2
18200;SDS011;9226;47.858;9.594;2023-06-04T00:01:00;14.30;;;6.47;;
18200;SDS011;9226;47.858;9.594;2023-06-04T00:03:25;11.20;;;6.13;;
18200;SDS011;9226;47.858;9.594;2023-06-04T00:05:50;10.30;;;6.30;;
18200;SDS011;9226;47.858;9.594;2023-06-04T00:08:16;14.70;;;6.50;;
18200;SDS011;9226;47.858;9.594;2023-06-04T00:10:42;19.00;;;6.77;;
18200;SDS011;9226;47.858;9.594;2023-06-04T00:13:07;14.80;;;6.47;;
18200;SDS011;9226;47.858;9.594;2023-06-04T00:15:32;13.40;;;6.17;;
18200;SDS011;9226;47.858;9.594;2023-06-04T00:17:58;13.20;;;6.20;;
18200;SDS011;9226;47.858;9.594;2023-06-04T00:20:23;14.27;;;6.13;;
18200;SDS011;9226;47.858;9.594;2023-06-04T00:22:49;11.43;;;6.20;;
18200;SDS011;9226;47.858;9.594;2023-06-04T00:25:14;14.47;;;6.40;;
18200;SDS011;9226;47.858;9.594;2023-06-04T00:27:40;12.23;;;6.10;;
18200;SDS011;9226;47.858;9.594;2023-06-04T00:30:05;10.13;;;5.80;;
18200;SDS011;9226;47.858;9.594;2023-06-04T00:32:31;15.40;;;6.50;;
18200;SDS011;9226;47.858;9.594;2023-06-04T00:34:57;11.60;;;6.50;;
18200;SDS011;9226;47.858;9.594;2023-06-04T00:37:23;12.23;;;6.80;;
18200;SDS011;9226;47.858;9.594;2023-06-04T00:39:49;19.90;;;6.53;;
18200;SDS011;9226;47.858;9.594;2023-06-04T00:42:14;16.77;;;6.53;;
18200;SDS011;9226;47.858;9.594;2023-06-04T00:44:40;15.03;;;6.77;;
18200;SDS011;9226;47.858;9.594;2023-06-04T00:47:10;10.50;;;6.20;;
18200;SDS011;9226;47.858;9.594;2023-06-04T00:49:39;10.00;;;6.17;;
18200;SDS011;9226;47.858;9.594;2023-06-04T00:52:06;13.20;;;7.03;;
18200;SDS011;9226;47.858;9.594;2023-06-04T00:54:37;12.40;;;6.30;;
18200;SDS011;9226;47.858;9.594;2023-06-04T00:57:03;11.13;;;6.50;;
18200;SDS011;9226;47.858;9.594;2023-06-04T00:59:29;12.57;;;6.53;;
18200;SDS011;9226;47.858;9.594;2023-06-04T01:02:07;11.57;;;6.50;;
18200;SDS011;9226;47.858;9.594;2023-06-04T01:07:41;12.07;;;6.80;;
18200;SDS011;9226;47.858;9.594;2023-06-04T01:10:11;12.70;;;6.70;;
18200;SDS011;9226;47.858;9.594;2023-06-04T01:12:40;13.40;;;6.73;;
18200;SDS011;9226;47.858;9.594;2023-06-04T01:15:08;11.57;;;6.77;;
18200;SDS011;9226;47.858;9.594;2023-06-04T01:17:41;10.17;;;5.93;;
18200;SDS011;9226;47.858;9.594;2023-06-04T01:25:20;11.93;;;6.57;;
18200;SDS011;9226;47.858;9.594;2023-06-04T01:27:49;12.87;;;6.43;;
18200;SDS011;9226;47.858;9.594;2023-06-04T01:30:18;10.10;;;7.00;;
18200;SDS011;9226;47.858;9.594;2023-06-04T01:32:48;11.90;;;7.10;;
18200;SDS011;9226;47.858;9.594;2023-06-04T01:35:14;12.60;;;6.50;;
18200;SDS011;9226;47.858;9.594;2023-06-04T01:37:39;17.17;;;6.67;;
18200;SDS011;9226;47.858;9.594;2023-06-04T01:40:05;12.17;;;7.10;;
18200;SDS011;9226;47.858;9.594;2023-06-04T01:42:33;15.40;;;6.80;;
18200;SDS011;9226;47.858;9.594;2023-06-04T01:44:58;13.50;;;6.60;;
18200;SDS011;9226;47.858;9.594;2023-06-04T01:47:23;13.87;;;6.87;;
18200;SDS011;9226;47.858;9.594;2023-06-04T01:49:49;12.50;;;6.80;;
18200;SDS011;9226;47.858;9.594;2023-06-04T01:52:15;14.50;;;6.60;;
18200;SDS011;9226;47.858;9.594;2023-06-04T01:54:41;12.10;;;6.90;;
18200;SDS011;9226;47.858;9.594;2023-06-04T01:57:07;12.20;;;6.47;;
18200;SDS011;9226;47.858;9.594;2023-06-04T01:59:35;13.50;;;6.67;;
18200;SDS011;9226;47.858;9.594;2023-06-04T02:02:01;11.87;;;6.67;;
18200;SDS011;9226;47.858;9.594;2023-06-04T02:04:27;14.33;;;6.77;;
18200;SDS011;9226;47.858;9.594;2023-06-04T02:06:53;15.90;;;7.03;;
18200;SDS011;9226;47.858;9.594;2023-06-04T02:09:18;15.20;;;6.97;;
18200;SDS011;9226;47.858;9.594;2023-06-04T02:11:44;14.27;;;7.27;;
18200;SDS011;9226;47.858;9.594;2023-06-04T02:14:09;13.83;;;7.23;;
18200;SDS011;9226;47.858;9.594;2023-06-04T02:16:35;15.80;;;6.73;;
18200;SDS011;9226;47.858;9.594;2023-06-04T02:19:00;15.40;;;7.60;;
18200;SDS011;9226;47.858;9.594;2023-06-04T02:21:26;13.60;;;6.93;;
18200;SDS011;9226;47.858;9.594;2023-06-04T02:23:51;14.87;;;7.43;;
18200;SDS011;9226;47.858;9.594;2023-06-04T02:26:16;11.53;;;6.67;;
18200;SDS011;9226;47.858;9.594;2023-06-04T02:28:42;10.40;;;6.33;;
18200;SDS011;9226;47.858;9.594;2023-06-04T02:31:07;12.33;;;6.97;;
18200;SDS011;9226;47.858;9.594;2023-06-04T02:33:33;13.37;;;6.63;;
18200;SDS011;9226;47.858;9.594;2023-06-04T02:35:58;15.73;;;7.00;;
18200;SDS011;9226;47.858;9.594;2023-06-04T02:38:24;11.80;;;7.00;;
18200;SDS011;9226;47.858;9.594;2023-06-04T02:40:49;15.77;;;6.77;;
18200;SDS011;9226;47.858;9.594;2023-06-04T02:43:15;14.70;;;6.67;;
18200;SDS011;9226;47.858;9.594;2023-06-04T02:45:40;12.70;;;6.70;;
18200;SDS011;9226;47.858;9.594;2023-06-04T02:48:06;16.87;;;6.87;;
18200;SDS011;9226;47.858;9.594;2023-06-04T02:50:31;16.00;;;7.30;;
18200;SDS011;9226;47.858;9.594;2023-06-04T02:52:56;13.80;;;6.33;;
18200;SDS011;9226;47.858;9.594;2023-06-04T02:55:22;11.33;;;6.80;;
18200;SDS011;9226;47.858;9.594;2023-06-04T02:57:47;14.03;;;6.93;;
18200;SDS011;9226;47.858;9.594;2023-06-04T03:00:14;11.47;;;6.27;;
18200;SDS011;9226;47.858;9.594;2023-06-04T03:02:46;11.70;;;6.70;;
18200;SDS011;9226;47.858;9.594;2023-06-04T03:05:13;15.10;;;6.77;;
18200;SDS011;9226;47.858;9.594;2023-06-04T03:07:40;13.07;;;6.90;;
18200;SDS011;9226;47.858;9.594;2023-06-04T03:10:08;12.53;;;6.33;;
18200;SDS011;9226;47.858;9.594;2023-06-04T03:12:34;12.23;;;6.93;;
18200;SDS011;9226;47.858;9.594;2023-06-04T03:15:00;11.07;;;6.30;;
18200;SDS011;9226;47.858;9.594;2023-06-04T03:17:26;15.03;;;7.20;;
18200;SDS011;9226;47.858;9.594;2023-06-04T03:19:51;15.47;;;6.20;;
18200;SDS011;9226;47.858;9.594;2023-06-04T03:22:17;12.67;;;6.30;;
18200;SDS011;9226;47.858;9.594;2023-06-04T03:24:42;11.70;;;6.30;;
18200;SDS011;9226;47.858;9.594;2023-06-04T03:27:08;10.00;;;5.83;;
18200;SDS011;9226;47.858;9.594;2023-06-04T03:29:35;12.37;;;6.57;;
18200;SDS011;9226;47.858;9.594;2023-06-04T03:32:01;10.93;;;6.13;;
18200;SDS011;9226;47.858;9.594;2023-06-04T03:34:27;12.33;;;6.87;;
18200;SDS011;9226;47.858;9.594;2023-06-04T03:36:55;11.60;;;6.00;;
18200;SDS011;9226;47.858;9.594;2023-06-04T03:39:21;11.40;;;6.87;;
18200;SDS011;9226;47.858;9.594;2023-06-04T03:41:46;11.13;;;6.13;;
18200;SDS011;9226;47.858;9.594;2023-06-04T03:44:15;17.83;;;6.53;;
18200;SDS011;9226;47.858;9.594;2023-06-04T03:46:41;12.60;;;6.77;;
18200;SDS011;9226;47.858;9.594;2023-06-04T03:49:08;12.37;;;6.53;;
18200;SDS011;9226;47.858;9.594;2023-06-04T03:51:35;15.97;;;7.30;;
18200;SDS011;9226;47.858;9.594;2023-06-04T03:54:01;10.73;;;5.77;;
18200;SDS011;9226;47.858;9.594;2023-06-04T03:56:27;13.53;;;6.67;;
18200;SDS011;9226;47.858;9.594;2023-06-04T03:58:52;12.17;;;6.10;;
18200;SDS011;9226;47.858;9.594;2023-06-04T04:01:18;12.20;;;5.90;;
18200;SDS011;9226;47.858;9.594;2023-06-04T04:03:43;11.67;;;6.03;;
18200;SDS011;9226;47.858;9.594;2023-06-04T04:06:13;12.73;;;6.00;;
18200;SDS011;9226;47.858;9.594;2023-06-04T04:08:39;13.07;;;6.70;;
18200;SDS011;9226;47.858;9.594;2023-06-04T04:11:10;12.43;;;6.47;;
18200;SDS011;9226;47.858;9.594;2023-06-04T04:13:36;12.63;;;5.83;;
18200;SDS011;9226;47.858;9.594;2023-06-04T04:16:01;13.93;;;6.43;;
18200;SDS011;9226;47.858;9.594;2023-06-04T04:18:27;13.17;;;5.83;;
18200;SDS011;9226;47.858;9.594;2023-06-04T04:20:52;11.93;;;6.23;;
18200;SDS011;9226;47.858;9.594;2023-06-04T04:23:17;10.80;;;6.00;;
18200;SDS011;9226;47.858;9.594;2023-06-04T04:25:43;11.97;;;5.90;;
18200;SDS011;9226;47.858;9.594;2023-06-04T04:28:13;14.13;;;6.30;;
18200;SDS011;9226;47.858;9.594;2023-06-04T04:30:39;10.07;;;6.10;;
18200;SDS011;9226;47.858;9.594;2023-06-04T04:33:05;10.67;;;6.07;;
18200;SDS011;9226;47.858;9.594;2023-06-04T04:35:31;10.30;;;5.97;;
18200;SDS011;9226;47.858;9.594;2023-06-04T04:38:00;12.03;;;6.07;;
18200;SDS011;9226;47.858;9.594;2023-06-04T04:40:29;10.47;;;5.80;;
18200;SDS011;9226;47.858;9.594;2023-06-04T04:42:55;11.23;;;5.90;;
18200;SDS011;9226;47.858;9.594;2023-06-04T04:45:21;10.07;;;6.00;;
18200;SDS011;9226;47.858;9.594;2023-06-04T04:47:47;10.83;;;5.87;;
18200;SDS011;9226;47.858;9.594;2023-06-04T04:50:12;11.27;;;5.90;;
18200;SDS011;9226;47.858;9.594;2023-06-04T04:52:38;9.60;;;5.90;;
18200;SDS011;9226;47.858;9.594;2023-06-04T04:55:04;11.77;;;5.73;;
18200;SDS011;9226;47.858;9.594;2023-06-04T04:57:30;9.73;;;6.10;;
18200;SDS011;9226;47.858;9.594;2023-06-04T04:59:55;10.40;;;5.97;;
18200;SDS011;9226;47.858;9.594;2023-06-04T05:02:21;10.97;;;5.90;;
18200;SDS011;9226;47.858;9.594;2023-06-04T05:04:46;9.43;;;5.73;;
18200;SDS011;9226;47.858;9.594;2023-06-04T05:07:11;9.67;;;5.33;;
18200;SDS011;9226;47.858;9.594;2023-06-04T05:09:37;10.17;;;5.37;;
18200;SDS011;9226;47.858;9.594;2023-06-04T05:12:02;8.97;;;5.50;;
18200;SDS011;9226;47.858;9.594;2023-06-04T05:14:28;8.87;;;5.40;;
18200;SDS011;9226;47.858;9.594;2023-06-04T05:16:54;11.60;;;5.60;;
18200;SDS011;9226;47.858;9.594;2023-06-04T05:19:23;8.90;;;5.27;;
18200;SDS011;9226;47.858;9.594;2023-06-04T05:21:49;8.90;;;5.40;;
18200;SDS011;9226;47.858;9.594;2023-06-04T05:24:15;8.23;;;5.50;;
18200;SDS011;9226;47.858;9.594;2023-06-04T05:26:41;8.17;;;5.40;;
18200;SDS011;9226;47.858;9.594;2023-06-04T05:29:07;12.27;;;5.40;;
18200;SDS011;9226;47.858;9.594;2023-06-04T05:31:33;12.73;;;5.80;;
18200;SDS011;9226;47.858;9.594;2023-06-04T05:33:59;9.60;;;5.57;;
18200;SDS011;9226;47.858;9.594;2023-06-04T05:36:26;8.07;;;5.00;;
18200;SDS011;9226;47.858;9.594;2023-06-04T05:38:52;9.80;;;5.80;;
18200;SDS011;9226;47.858;9.594;2023-06-04T05:41:22;9.93;;;5.43;;
18200;SDS011;9226;47.858;9.594;2023-06-04T05:43:51;9.93;;;5.40;;
18200;SDS011;9226;47.858;9.594;2023-06-04T05:46:17;16.60;;;5.70;;
18200;SDS011;9226;47.858;9.594;2023-06-04T05:48:42;11.50;;;5.37;;
18200;SDS011;9226;47.858;9.594;2023-06-04T05:51:07;12.33;;;5.57;;
18200;SDS011;9226;47.858;9.594;2023-06-04T05:53:33;12.53;;;5.53;;
18200;SDS011;9226;47.858;9.594;2023-06-04T05:55:58;9.43;;;5.43;;
18200;SDS011;9226;47.858;9.594;2023-06-04T05:58:24;9.60;;;5.40;;
18200;SDS011;9226;47.858;9.594;2023-06-04T06:00:50;9.17;;;5.60;;
18200;SDS011;9226;47.858;9.594;2023-06-04T06:03:15;11.27;;;5.37;;
18200;SDS011;9226;47.858;9.594;2023-06-04T06:05:41;10.83;;;5.13;;
18200;SDS011;9226;47.858;9.594;2023-06-04T06:08:08;10.23;;;5.97;;
18200;SDS011;9226;47.858;9.594;2023-06-04T06:10:33;8.93;;;5.03;;
18200;SDS011;9226;47.858;9.594;2023-06-04T06:12:59;10.00;;;5.43;;
18200;SDS011;9226;47.858;9.594;2023-06-04T06:15:27;8.87;;;5.70;;
18200;SDS011;9226;47.858;9.594;2023-06-04T06:17:53;7.90;;;5.63;;
18200;SDS011;9226;47.858;9.594;2023-06-04T06:20:19;9.50;;;5.23;;
18200;SDS011;9226;47.858;9.594;2023-06-04T06:22:45;9.23;;;5.43;;
18200;SDS011;9226;47.858;9.594;2023-06-04T06:25:11;6.93;;;5.15;;
18200;SDS011;9226;47.858;9.594;2023-06-04T06:27:38;7.32;;;5.00;;
18200;SDS011;9226;47.858;9.594;2023-06-04T06:30:04;11.88;;;5.65;;
18200;SDS011;9226;47.858;9.594;2023-06-04T06:32:31;10.60;;;5.13;;
18200;SDS011;9226;47.858;9.594;2023-06-04T06:34:56;13.68;;;6.68;;
18200;SDS011;9226;47.858;9.594;2023-06-04T06:37:22;9.45;;;5.63;;
18200;SDS011;9226;47.858;9.594;2023-06-04T06:39:47;10.88;;;5.50;;
18200;SDS011;9226;47.858;9.594;2023-06-04T06:42:13;12.45;;;5.35;;
18200;SDS011;9226;47.858;9.594;2023-06-04T06:44:38;8.25;;;5.47;;
18200;SDS011;9226;47.858;9.594;2023-06-04T06:47:03;11.10;;;5.50;;
18200;SDS011;9226;47.858;9.594;2023-06-04T06:49:29;10.43;;;5.50;;
18200;SDS011;9226;47.858;9.594;2023-06-04T06:51:54;8.52;;;5.18;;
18200;SDS011;9226;47.858;9.594;2023-06-04T06:54:20;7.45;;;4.40;;
18200;SDS011;9226;47.858;9.594;2023-06-04T06:56:47;8.50;;;5.32;;
18200;SDS011;9226;47.858;9.594;2023-06-04T06:59:14;11.88;;;5.47;;
18200;SDS011;9226;47.858;9.594;2023-06-04T07:01:39;8.43;;;5.15;;
18200;SDS011;9226;47.858;9.594;2023-06-04T07:04:05;7.38;;;5.30;;
18200;SDS011;9226;47.858;9.594;2023-06-04T07:06:31;7.88;;;5.22;;
18200;SDS011;9226;47.858;9.594;2023-06-04T07:08:57;9.23;;;5.50;;
18200;SDS011;9226;47.858;9.594;2023-06-04T07:11:22;8.18;;;5.35;;
18200;SDS011;9226;47.858;9.594;2023-06-04T07:13:48;8.85;;;4.95;;
18200;SDS011;9226;47.858;9.594;2023-06-04T07:16:13;8.07;;;5.10;;
18200;SDS011;9226;47.858;9.594;2023-06-04T07:18:39;6.03;;;4.88;;
18200;SDS011;9226;47.858;9.594;2023-06-04T07:21:04;8.13;;;4.97;;
18200;SDS011;9226;47.858;9.594;2023-06-04T07:23:30;8.40;;;4.95;;
18200;SDS011;9226;47.858;9.594;2023-06-04T07:25:55;6.82;;;4.95;;
18200;SDS011;9226;47.858;9.594;2023-06-04T07:28:22;9.23;;;5.03;;
18200;SDS011;9226;47.858;9.594;2023-06-04T07:30:47;8.02;;;5.40;;
18200;SDS011;9226;47.858;9.594;2023-06-04T07:33:13;10.02;;;5.13;;
18200;SDS011;9226;47.858;9.594;2023-06-04T07:35:38;8.05;;;5.30;;
18200;SDS011;9226;47.858;9.594;2023-06-04T07:38:03;8.43;;;5.30;;
18200;SDS011;9226;47.858;9.594;2023-06-04T07:40:29;7.55;;;4.47;;
18200;SDS011;9226;47.858;9.594;2023-06-04T07:42:54;7.65;;;5.07;;
18200;SDS011;9226;47.858;9.594;2023-06-04T07:45:20;8.63;;;5.65;;
18200;SDS011;9226;47.858;9.594;2023-06-04T07:47:45;9.25;;;5.35;;
18200;SDS011;9226;47.858;9.594;2023-06-04T07:50:11;7.32;;;5.00;;
18200;SDS011;9226;47.858;9.594;2023-06-04T07:52:36;7.85;;;5.07;;
18200;SDS011;9226;47.858;9.594;2023-06-04T07:55:02;7.10;;;5.47;;
18200;SDS011;9226;47.858;9.594;2023-06-04T07:57:28;7.47;;;4.95;;
18200;SDS011;9226;47.858;9.594;2023-06-04T07:59:54;7.32;;;5.00;;
18200;SDS011;9226;47.858;9.594;2023-06-04T08:02:19;10.88;;;5.07;;
18200;SDS011;9226;47.858;9.594;2023-06-04T08:04:44;7.03;;;5.03;;
18200;SDS011;9226;47.858;9.594;2023-06-04T08:07:11;5.95;;;4.78;;
18200;SDS011;9226;47.858;9.594;2023-06-04T08:09:37;6.90;;;5.07;;
18200;SDS011;9226;47.858;9.594;2023-06-04T08:12:02;11.70;;;5.18;;
18200;SDS011;9226;47.858;9.594;2023-06-04T08:14:27;11.15;;;5.80;;
18200;SDS011;9226;47.858;9.594;2023-06-04T08:16:53;8.18;;;4.82;;
18200;SDS011;9226;47.858;9.594;2023-06-04T08:19:19;8.20;;;5.03;;
18200;SDS011;9226;47.858;9.594;2023-06-04T08:21:45;13.07;;;5.28;;
18200;SDS011;9226;47.858;9.594;2023-06-04T08:24:12;8.60;;;4.85;;
18200;SDS011;9226;47.858;9.594;2023-06-04T08:26:38;6.88;;;5.35;;
18200;SDS011;9226;47.858;9.594;2023-06-04T08:29:03;15.52;;;5.07;;
18200;SDS011;9226;47.858;9.594;2023-06-04T08:31:29;8.35;;;5.47;;
18200;SDS011;9226;47.858;9.594;2023-06-04T08:33:55;7.57;;;4.75;;
18200;SDS011;9226;47.858;9.594;2023-06-04T08:36:21;7.38;;;5.15;;
18200;SDS011;9226;47.858;9.594;2023-06-04T08:38:46;7.47;;;5.07;;
18200;SDS011;9226;47.858;9.594;2023-06-04T08:41:16;9.80;;;5.18;;
18200;SDS011;9226;47.858;9.594;2023-06-04T08:43:45;9.30;;;5.50;;
18200;SDS011;9226;47.858;9.594;2023-06-04T08:46:11;9.45;;;5.38;;
18200;SDS011;9226;47.858;9.594;2023-06-04T08:48:37;10.13;;;5.38;;
18200;SDS011;9226;47.858;9.594;2023-06-04T08:51:05;6.47;;;4.82;;
18200;SDS011;9226;47.858;9.594;2023-06-04T08:53:34;7.15;;;5.00;;
18200;SDS011;9226;47.858;9.594;2023-06-04T08:56:01;6.45;;;4.72;;
18200;SDS011;9226;47.858;9.594;2023-06-04T08:58:29;7.95;;;4.82;;
18200;SDS011;9226;47.858;9.594;2023-06-04T09:00:56;10.15;;;5.07;;
18200;SDS011;9226;47.858;9.594;2023-06-04T09:03:22;7.65;;;4.68;;
18200;SDS011;9226;47.858;9.594;2023-06-04T09:05:49;6.15;;;4.85;;
18200;SDS011;9226;47.858;9.594;2023-06-04T09:08:17;7.25;;;4.97;;
18200;SDS011;9226;47.858;9.594;2023-06-04T09:10:44;8.02;;;4.97;;
18200;SDS011;9226;47.858;9.594;2023-06-04T09:13:16;8.93;;;4.80;;
18200;SDS011;9226;47.858;9.594;2023-06-04T09:15:43;7.93;;;5.68;;
18200;SDS011;9226;47.858;9.594;2023-06-04T09:18:08;7.35;;;5.05;;
18200;SDS011;9226;47.858;9.594;2023-06-04T09:20:33;8.57;;;4.63;;
18200;SDS011;9226;47.858;9.594;2023-06-04T09:22:59;9.00;;;5.32;;
18200;SDS011;9226;47.858;9.594;2023-06-04T09:25:25;6.22;;;4.80;;
18200;SDS011;9226;47.858;9.594;2023-06-04T09:27:52;7.10;;;4.20;;
18200;SDS011;9226;47.858;9.594;2023-06-04T09:30:19;9.38;;;5.60;;
18200;SDS011;9226;47.858;9.594;2023-06-04T09:32:45;6.75;;;4.38;;
18200;SDS011;9226;47.858;9.594;2023-06-04T09:35:14;8.90;;;4.90;;
18200;SDS011;9226;47.858;9.594;2023-06-04T09:37:42;8.70;;;4.70;;
18200;SDS011;9226;47.858;9.594;2023-06-04T09:40:16;9.18;;;5.03;;
18200;SDS011;9226;47.858;9.594;2023-06-04T09:42:45;6.88;;;4.63;;
18200;SDS011;9226;47.858;9.594;2023-06-04T09:45:25;13.43;;;4.93;;
18200;SDS011;9226;47.858;9.594;2023-06-04T09:48:00;8.93;;;4.82;;
18200;SDS011;9226;47.858;9.594;2023-06-04T09:50:29;8.35;;;5.00;;
18200;SDS011;9226;47.858;9.594;2023-06-04T09:52:56;9.30;;;4.72;;
18200;SDS011;9226;47.858;9.594;2023-06-04T09:55:21;6.15;;;4.55;;
18200;SDS011;9226;47.858;9.594;2023-06-04T09:57:47;8.75;;;4.60;;
18200;SDS011;9226;47.858;9.594;2023-06-04T10:00:17;8.82;;;4.72;;
18200;SDS011;9226;47.858;9.594;2023-06-04T10:02:44;8.45;;;4.78;;
18200;SDS011;9226;47.858;9.594;2023-06-04T10:05:11;7.82;;;4.57;;
18200;SDS011;9226;47.858;9.594;2023-06-04T10:07:39;13.13;;;4.95;;
18200;SDS011;9226;47.858;9.594;2023-06-04T10:10:08;7.50;;;4.85;;
18200;SDS011;9226;47.858;9.594;2023-06-04T10:12:39;8.43;;;4.82;;
18200;SDS011;9226;47.858;9.594;2023-06-04T10:15:07;7.43;;;4.40;;
18200;SDS011;9226;47.858;9.594;2023-06-04T10:17:36;9.10;;;4.55;;
18200;SDS011;9226;47.858;9.594;2023-06-04T10:20:02;11.90;;;4.97;;
18200;SDS011;9226;47.858;9.594;2023-06-04T10:22:33;6.60;;;4.95;;
18200;SDS011;9226;47.858;9.594;2023-06-04T10:24:59;6.85;;;4.18;;
18200;SDS011;9226;47.858;9.594;2023-06-04T10:27:25;7.28;;;5.05;;
18200;SDS011;9226;47.858;9.594;2023-06-04T10:29:50;8.95;;;5.07;;
18200;SDS011;9226;47.858;9.594;2023-06-04T10:32:17;9.45;;;4.95;;
18200;SDS011;9226;47.858;9.594;2023-06-04T10:34:45;7.10;;;5.00;;
18200;SDS011;9226;47.858;9.594;2023-06-04T10:37:26;7.38;;;4.57;;
18200;SDS011;9226;47.858;9.594;2023-06-04T10:39:55;9.77;;;5.18;;
18200;SDS011;9226;47.858;9.594;2023-06-04T10:42:22;9.23;;;4.95;;
18200;SDS011;9226;47.858;9.594;2023-06-04T10:44:48;6.50;;;4.82;;
18200;SDS011;9226;47.858;9.594;2023-06-04T10:49:49;7.07;;;4.57;;
18200;SDS011;9226;47.858;9.594;2023-06-04T10:52:16;6.90;;;4.72;;
18200;SDS011;9226;47.858;9.594;2023-06-04T10:54:42;7.88;;;4.85;;
18200;SDS011;9226;47.858;9.594;2023-06-04T10:57:16;11.30;;;4.82;;
18200;SDS011;9226;47.858;9.594;2023-06-04T10:59:56;8.00;;;4.82;;
18200;SDS011;9226;47.858;9.594;2023-06-04T11:02:26;8.07;;;4.93;;
18200;SDS011;9226;47.858;9.594;2023-06-04T11:05:05;7.35;;;5.05;;
18200;SDS011;9226;47.858;9.594;2023-06-04T11:07:44;6.47;;;4.50;;
18200;SDS011;9226;47.858;9.594;2023-06-04T11:10:11;6.95;;;4.53;;
18200;SDS011;9226;47.858;9.594;2023-06-04T11:12:42;6.13;;;4.70;;
18200;SDS011;9226;47.858;9.594;2023-06-04T11:15:08;7.32;;;5.13;;
18200;SDS011;9226;47.858;9.594;2023-06-04T11:17:34;7.75;;;4.95;;
18200;SDS011;9226;47.858;9.594;2023-06-04T11:19:59;7.20;;;4.90;;
18200;SDS011;9226;47.858;9.594;2023-06-04T11:22:25;9.95;;;4.90;;
18200;SDS011;9226;47.858;9.594;2023-06-04T11:24:56;7.90;;;4.80;;
18200;SDS011;9226;47.858;9.594;2023-06-04T11:27:24;6.22;;;4.55;;
18200;SDS011;9226;47.858;9.594;2023-06-04T11:29:50;13.38;;;4.50;;
18200;SDS011;9226;47.858;9.594;2023-06-04T11:32:25;5.82;;;4.28;;
18200;SDS011;9226;47.858;9.594;2023-06-04T11:34:50;8.35;;;4.63;;
18200;SDS011;9226;47.858;9.594;2023-06-04T11:37:16;8.18;;;5.30;;
18200;SDS011;9226;47.858;9.594;2023-06-04T11:39:41;8.80;;;4.43;;
18200;SDS011;9226;47.858;9.594;2023-06-04T11:42:09;6.93;;;4.20;;
18200;SDS011;9226;47.858;9.594;2023-06-04T11:44:34;7.13;;;4.50;;
18200;SDS011;9226;47.858;9.594;2023-06-04T11:47:00;6.03;;;4.10;;
18200;SDS011;9226;47.858;9.594;2023-06-04T11:49:29;9.40;;;4.88;;
18200;SDS011;9226;47.858;9.594;2023-06-04T11:51:54;5.75;;;4.18;;
18200;SDS011;9226;47.858;9.594;2023-06-04T11:54:20;6.35;;;4.22;;
18200;SDS011;9226;47.858;9.594;2023-06-04T11:56:48;11.48;;;5.05;;
18200;SDS011;9226;47.858;9.594;2023-06-04T11:59:16;7.57;;;4.85;;
18200;SDS011;9226;47.858;9.594;2023-06-04T12:01:42;6.47;;;4.28;;
18200;SDS011;9226;47.858;9.594;2023-06-04T12:04:12;7.20;;;4.45;;
18200;SDS011;9226;47.858;9.594;2023-06-04T12:06:38;7.78;;;4.20;;
18200;SDS011;9226;47.858;9.594;2023-06-04T12:09:04;9.10;;;5.28;;
18200;SDS011;9226;47.858;9.594;2023-06-04T12:11:30;8.63;;;4.68;;
18200;SDS011;9226;47.858;9.594;2023-06-04T12:13:57;6.97;;;4.50;;
18200;SDS011;9226;47.858;9.594;2023-06-04T12:16:24;7.03;;;4.65;;
18200;SDS011;9226;47.858;9.594;2023-06-04T12:18:50;10.68;;;4.50;;
18200;SDS011;9226;47.858;9.594;2023-06-04T12:21:21;6.47;;;4.30;;
18200;SDS011;9226;47.858;9.594;2023-06-04T12:23:52;7.25;;;4.28;;
18200;SDS011;9226;47.858;9.594;2023-06-04T12:26:38;7.00;;;4.65;;
18200;SDS011;9226;47.858;9.594;2023-06-04T12:29:15;5.95;;;4.13;;
18200;SDS011;9226;47.858;9.594;2023-06-04T12:31:42;6.32;;;4.22;;
18200;SDS011;9226;47.858;9.594;2023-06-04T12:34:10;8.65;;;4.00;;
18200;SDS011;9226;47.858;9.594;2023-06-04T12:36:37;9.70;;;4.45;;
18200;SDS011;9226;47.858;9.594;2023-06-04T12:39:03;9.25;;;4.47;;
18200;SDS011;9226;47.858;9.594;2023-06-04T12:41:32;7.28;;;4.57;;
18200;SDS011;9226;47.858;9.594;2023-06-04T12:43:59;7.72;;;4.50;;
18200;SDS011;9226;47.858;9.594;2023-06-04T12:46:25;7.60;;;4.82;;
18200;SDS011;9226;47.858;9.594;2023-06-04T12:48:51;7.97;;;4.97;;
18200;SDS011;9226;47.858;9.594;2023-06-04T12:51:18;8.43;;;5.05;;
18200;SDS011;9226;47.858;9.594;2023-06-04T12:53:45;8.50;;;5.20;;
18200;SDS011;9226;47.858;9.594;2023-06-04T12:56:11;8.68;;;4.68;;
18200;SDS011;9226;47.858;9.594;2023-06-04T12:58:36;9.07;;;5.03;;
18200;SDS011;9226;47.858;9.594;2023-06-04T13:01:02;7.78;;;5.00;;
18200;SDS011;9226;47.858;9.594;2023-06-04T13:03:29;10.23;;;4.70;;
18200;SDS011;9226;47.858;9.594;2023-06-04T13:05:55;7.57;;;4.78;;
18200;SDS011;9226;47.858;9.594;2023-06-04T13:08:21;6.80;;;4.90;;
18200;SDS011;9226;47.858;9.594;2023-06-04T13:10:47;15.98;;;4.90;;
18200;SDS011;9226;47.858;9.594;2023-06-04T13:13:14;8.88;;;4.88;;
18200;SDS011;9226;47.858;9.594;2023-06-04T13:15:42;6.63;;;4.63;;
18200;SDS011;9226;47.858;9.594;2023-06-04T13:18:08;7.47;;;5.25;;
18200;SDS011;9226;47.858;9.594;2023-06-04T13:20:35;11.00;;;4.90;;
18200;SDS011;9226;47.858;9.594;2023-06-04T13:23:01;8.57;;;5.05;;
18200;SDS011;9226;47.858;9.594;2023-06-04T13:25:26;8.75;;;5.05;;
18200;SDS011;9226;47.858;9.594;2023-06-04T13:27:53;7.88;;;4.90;;
18200;SDS011;9226;47.858;9.594;2023-06-04T13:30:19;7.63;;;4.85;;
18200;SDS011;9226;47.858;9.594;2023-06-04T13:32:44;9.15;;;5.03;;
18200;SDS011;9226;47.858;9.594;2023-06-04T13:35:10;8.45;;;4.95;;
18200;SDS011;9226;47.858;9.594;2023-06-04T13:37:35;9.18;;;4.50;;
18200;SDS011;9226;47.858;9.594;2023-06-04T13:40:01;8.95;;;5.25;;
18200;SDS011;9226;47.858;9.594;2023-06-04T13:42:26;8.82;;;5.25;;
18200;SDS011;9226;47.858;9.594;2023-06-04T13:44:51;6.55;;;4.85;;
18200;SDS011;9226;47.858;9.594;2023-06-04T13:47:17;8.97;;;4.87;;
18200;SDS011;9226;47.858;9.594;2023-06-04T13:49:43;10.20;;;5.40;;
18200;SDS011;9226;47.858;9.594;2023-06-04T13:52:08;6.83;;;4.40;;
18200;SDS011;9226;47.858;9.594;2023-06-04T13:54:34;10.68;;;5.22;;
18200;SDS011;9226;47.858;9.594;2023-06-04T13:57:02;9.33;;;5.60;;
18200;SDS011;9226;47.858;9.594;2023-06-04T13:59:31;7.43;;;4.80;;
18200;SDS011;9226;47.858;9.594;2023-06-04T14:01:57;8.50;;;4.90;;
18200;SDS011;9226;47.858;9.594;2023-06-04T14:04:23;9.90;;;5.23;;
18200;SDS011;9226;47.858;9.594;2023-06-04T14:06:48;9.60;;;5.33;;
18200;SDS011;9226;47.858;9.594;2023-06-04T14:09:14;8.40;;;5.03;;
18200;SDS011;9226;47.858;9.594;2023-06-04T14:11:40;7.30;;;4.90;;
18200;SDS011;9226;47.858;9.594;2023-06-04T14:14:06;8.43;;;5.15;;
18200;SDS011;9226;47.858;9.594;2023-06-04T14:16:31;9.43;;;5.57;;
18200;SDS011;9226;47.858;9.594;2023-06-04T14:18:57;8.90;;;5.40;;
18200;SDS011;9226;47.858;9.594;2023-06-04T14:21:22;7.30;;;5.13;;
18200;SDS011;9226;47.858;9.594;2023-06-04T14:23:48;10.77;;;5.10;;
18200;SDS011;9226;47.858;9.594;2023-06-04T14:26:15;7.80;;;5.20;;
18200;SDS011;9226;47.858;9.594;2023-06-04T14:28:42;11.60;;;4.47;;
18200;SDS011;9226;47.858;9.594;2023-06-04T14:31:08;8.50;;;5.10;;
18200;SDS011;9226;47.858;9.594;2023-06-04T14:33:34;8.27;;;4.77;;
18200;SDS011;9226;47.858;9.594;2023-06-04T14:36:02;8.13;;;5.20;;
18200;SDS011;9226;47.858;9.594;2023-06-04T14:38:28;8.67;;;5.30;;
18200;SDS011;9226;47.858;9.594;2023-06-04T14:40:53;8.30;;;5.23;;
18200;SDS011;9226;47.858;9.594;2023-06-04T14:43:20;9.70;;;4.67;;
18200;SDS011;9226;47.858;9.594;2023-06-04T14:45:46;9.70;;;5.30;;
18200;SDS011;9226;47.858;9.594;2023-06-04T14:48:11;8.93;;;4.77;;
18200;SDS011;9226;47.858;9.594;2023-06-04T14:50:37;10.03;;;5.43;;
18200;SDS011;9226;47.858;9.594;2023-06-04T14:53:02;10.30;;;5.93;;
18200;SDS011;9226;47.858;9.594;2023-06-04T14:55:32;9.03;;;4.83;;
18200;SDS011;9226;47.858;9.594;2023-06-04T14:57:57;8.50;;;5.53;;
18200;SDS011;9226;47.858;9.594;2023-06-04T15:00:23;11.53;;;4.97;;
18200;SDS011;9226;47.858;9.594;2023-06-04T15:02:48;10.40;;;5.13;;